createdAt,value
2019-03-31T00:00:00.431Z,22.63
2019-03-31T00:02:28.978Z,24.17
2019-03-31T00:04:57.318Z,18.67
2019-03-31T00:07:25.626Z,22.57
2019-03-31T00:09:53.968Z,23.20
2019-03-31T00:12:22.265Z,20.77
2019-03-31T00:14:50.603Z,18.33
2019-03-31T00:17:18.907Z,20.47
2019-03-31T00:19:47.242Z,18.57
2019-03-31T00:22:15.474Z,19.40
2019-03-31T00:24:43.809Z,23.03
2019-03-31T00:27:12.049Z,22.07
2019-03-31T00:29:40.317Z,17.30
2019-03-31T00:32:08.553Z,18.47
2019-03-31T00:34:36.865Z,16.03
2019-03-31T00:37:07.630Z,15.43
2019-03-31T00:39:35.098Z,17.83
2019-03-31T00:42:03.501Z,17.27
2019-03-31T00:44:31.732Z,15.10
2019-03-31T00:47:02.222Z,14.57
2019-03-31T00:49:29.978Z,17.40
2019-03-31T00:51:58.256Z,17.67
2019-03-31T00:54:27.830Z,14.90
2019-03-31T00:56:56.630Z,18.57
2019-03-31T00:59:24.937Z,19.80
2019-03-31T01:01:57.872Z,17.30
2019-03-31T01:04:28.343Z,18.00
2019-03-31T01:06:57.145Z,16.13
2019-03-31T01:09:29.909Z,18.17
2019-03-31T01:11:58.441Z,16.80
2019-03-31T01:14:26.674Z,15.97
2019-03-31T01:16:55.154Z,16.17
2019-03-31T01:19:23.950Z,16.00
2019-03-31T01:21:52.251Z,17.60
2019-03-31T01:24:20.596Z,16.73
2019-03-31T01:26:48.842Z,14.80
2019-03-31T01:29:17.377Z,16.27
2019-03-31T01:31:50.692Z,17.60
2019-03-31T01:34:16.115Z,17.07
2019-03-31T01:36:44.353Z,16.70
2019-03-31T01:39:12.693Z,16.27
2019-03-31T01:41:41.003Z,14.60
2019-03-31T01:44:09.299Z,18.13
2019-03-31T01:46:37.635Z,17.53
2019-03-31T01:49:05.950Z,19.20
2019-03-31T01:51:34.234Z,16.87
2019-03-31T01:54:02.604Z,17.53
2019-03-31T01:56:30.963Z,20.60
2019-03-31T01:58:59.276Z,18.73
2019-03-31T02:01:27.617Z,16.97
2019-03-31T02:03:56.024Z,23.77
2019-03-31T02:06:24.447Z,22.40
2019-03-31T02:08:52.668Z,18.10
2019-03-31T02:11:21.026Z,20.87
2019-03-31T02:13:49.345Z,20.80
2019-03-31T02:16:17.746Z,19.13
2019-03-31T02:18:46.058Z,15.20
2019-03-31T02:21:14.475Z,20.57
2019-03-31T02:23:43.115Z,19.90
2019-03-31T02:26:11.432Z,18.20
2019-03-31T02:28:39.755Z,17.17
2019-03-31T02:31:08.098Z,16.13
2019-03-31T02:33:36.356Z,15.47
2019-03-31T02:36:04.690Z,16.53
2019-03-31T02:38:32.925Z,16.40
2019-03-31T02:41:01.263Z,20.10
2019-03-31T02:43:29.582Z,16.37
2019-03-31T02:45:57.971Z,15.07
2019-03-31T02:48:26.318Z,17.13
2019-03-31T02:50:54.631Z,14.33
2019-03-31T02:53:22.969Z,16.87
2019-03-31T02:55:52.756Z,17.50
2019-03-31T02:58:21.106Z,15.43
2019-03-31T03:00:49.464Z,15.97
2019-03-31T03:03:18.300Z,16.57
2019-03-31T03:05:47.558Z,16.17
2019-03-31T03:08:17.569Z,18.40
2019-03-31T03:10:47.383Z,16.43
2019-03-31T03:13:15.712Z,16.27
2019-03-31T03:15:51.546Z,18.10
2019-03-31T03:18:19.871Z,14.80
2019-03-31T03:20:48.219Z,16.10
2019-03-31T03:23:16.540Z,17.83
2019-03-31T03:25:55.904Z,18.57
2019-03-31T03:28:14.773Z,16.00
2019-03-31T03:30:43.258Z,18.50
2019-03-31T03:33:16.320Z,16.73
2019-03-31T03:35:41.886Z,16.93
2019-03-31T03:38:10.280Z,16.30
2019-03-31T03:40:38.718Z,14.90
2019-03-31T03:43:07.042Z,17.03
2019-03-31T03:45:35.389Z,19.83
2019-03-31T03:48:03.625Z,17.90
2019-03-31T03:50:31.925Z,15.53
2019-03-31T03:53:00.267Z,15.40
2019-03-31T03:55:28.569Z,16.13
2019-03-31T03:57:56.905Z,16.60
2019-03-31T04:00:25.154Z,17.77
2019-03-31T04:02:53.510Z,16.30
2019-03-31T04:05:21.792Z,14.50
2019-03-31T04:07:50.137Z,15.63
2019-03-31T04:10:25.932Z,15.27
2019-03-31T04:12:54.171Z,15.27
2019-03-31T04:15:22.595Z,15.67
2019-03-31T04:17:50.905Z,17.67
2019-03-31T04:20:19.239Z,15.50
2019-03-31T04:22:47.567Z,16.30
2019-03-31T04:25:15.828Z,17.60
2019-03-31T04:27:44.107Z,16.90
2019-03-31T04:30:12.414Z,16.00
2019-03-31T04:32:40.825Z,14.97
2019-03-31T04:35:09.147Z,13.90
2019-03-31T04:37:37.487Z,16.97
2019-03-31T04:40:05.801Z,16.60
2019-03-31T04:42:34.198Z,16.87
2019-03-31T04:45:02.500Z,16.23
2019-03-31T04:47:30.812Z,18.70
2019-03-31T04:49:59.085Z,20.63
2019-03-31T04:52:27.385Z,15.80
2019-03-31T04:54:55.648Z,15.70
2019-03-31T04:57:23.953Z,15.70
2019-03-31T04:59:52.285Z,17.50
2019-03-31T05:02:20.599Z,18.93
2019-03-31T05:04:48.904Z,19.40
2019-03-31T05:07:17.171Z,18.37
2019-03-31T05:09:45.471Z,16.60
2019-03-31T05:12:16.773Z,16.73
2019-03-31T05:14:43.749Z,17.87
2019-03-31T05:17:12.076Z,15.90
2019-03-31T05:19:40.477Z,15.00
2019-03-31T05:22:08.783Z,18.37
2019-03-31T05:24:37.046Z,15.53
2019-03-31T05:27:05.377Z,19.33
2019-03-31T05:29:33.711Z,18.87
2019-03-31T05:32:02.016Z,17.73
2019-03-31T05:34:30.418Z,18.73
2019-03-31T05:36:58.735Z,19.53
2019-03-31T05:39:27.002Z,21.17
2019-03-31T05:41:55.307Z,16.37
2019-03-31T05:44:23.554Z,17.80
2019-03-31T05:46:51.831Z,18.20
2019-03-31T05:49:20.124Z,19.10
2019-03-31T05:51:48.549Z,15.80
2019-03-31T05:54:16.868Z,19.93
2019-03-31T05:56:45.218Z,19.20
2019-03-31T05:59:13.551Z,15.73
2019-03-31T06:01:41.967Z,21.87
2019-03-31T06:04:10.204Z,16.00
2019-03-31T06:06:38.516Z,16.83
2019-03-31T06:09:06.839Z,17.00
2019-03-31T06:11:35.088Z,15.93
2019-03-31T06:14:03.436Z,16.90
2019-03-31T06:16:31.809Z,16.33
2019-03-31T06:19:00.157Z,17.87
2019-03-31T06:21:29.287Z,17.67
2019-03-31T06:23:57.755Z,23.17
2019-03-31T06:26:26.126Z,16.17
2019-03-31T06:28:54.462Z,18.20
2019-03-31T06:31:22.875Z,21.00
2019-03-31T06:33:51.253Z,17.93
2019-03-31T06:36:19.687Z,16.03
2019-03-31T06:38:48.084Z,16.90
2019-03-31T06:41:16.457Z,14.80
2019-03-31T06:43:44.841Z,16.30
2019-03-31T06:46:13.239Z,16.60
2019-03-31T06:48:41.611Z,15.83
2019-03-31T06:51:09.991Z,16.37
2019-03-31T06:53:38.419Z,16.53
2019-03-31T06:56:06.743Z,18.73
2019-03-31T06:58:35.068Z,18.33
2019-03-31T07:01:03.519Z,15.17
2019-03-31T07:03:31.932Z,21.07
2019-03-31T07:06:00.376Z,15.93
2019-03-31T07:08:28.825Z,15.23
2019-03-31T07:10:57.264Z,17.20
2019-03-31T07:13:25.725Z,16.17
2019-03-31T07:15:55.388Z,15.00
2019-03-31T07:18:23.810Z,15.83
2019-03-31T07:20:52.224Z,20.47
2019-03-31T07:23:20.650Z,16.37
2019-03-31T07:25:49.108Z,17.80
2019-03-31T07:28:17.551Z,16.23
2019-03-31T07:30:45.990Z,16.97
2019-03-31T07:33:14.449Z,14.50
2019-03-31T07:35:42.890Z,14.83
2019-03-31T07:38:11.353Z,16.83
2019-03-31T07:40:39.821Z,18.73
2019-03-31T07:43:08.333Z,17.97
2019-03-31T07:45:36.695Z,18.83
2019-03-31T07:48:08.008Z,15.60
2019-03-31T07:50:35.108Z,18.27
2019-03-31T07:53:03.512Z,15.57
2019-03-31T07:55:31.953Z,14.63
2019-03-31T07:58:00.347Z,14.47
2019-03-31T08:00:28.714Z,17.37
2019-03-31T08:03:00.185Z,17.13
2019-03-31T08:05:33.363Z,19.00
2019-03-31T08:07:57.350Z,16.30
2019-03-31T08:10:25.785Z,13.60
2019-03-31T08:12:54.207Z,14.67
2019-03-31T08:15:22.582Z,14.07
2019-03-31T08:17:50.982Z,16.07
2019-03-31T08:20:19.505Z,14.70
2019-03-31T08:22:47.875Z,14.73
2019-03-31T08:25:16.695Z,16.47
2019-03-31T08:27:45.133Z,16.37
2019-03-31T08:30:14.367Z,17.87
2019-03-31T08:32:42.831Z,15.53
2019-03-31T08:35:11.452Z,15.20
2019-03-31T08:37:39.903Z,15.70
2019-03-31T08:40:09.800Z,17.83
2019-03-31T08:42:38.261Z,14.97
2019-03-31T08:45:08.084Z,15.87
2019-03-31T08:47:36.710Z,15.73
2019-03-31T08:50:05.636Z,16.17
2019-03-31T08:52:34.108Z,14.47
2019-03-31T08:55:02.597Z,17.20
2019-03-31T08:57:30.993Z,12.80
2019-03-31T08:59:59.528Z,13.20
2019-03-31T09:02:29.505Z,16.77
2019-03-31T09:04:57.923Z,13.90
2019-03-31T09:07:26.336Z,17.47
2019-03-31T09:09:54.697Z,17.07
2019-03-31T09:12:23.149Z,16.27
2019-03-31T09:14:51.559Z,18.50
2019-03-31T09:17:19.975Z,14.27
2019-03-31T09:19:48.442Z,12.53
2019-03-31T09:22:16.874Z,16.57
2019-03-31T09:24:45.354Z,16.27
2019-03-31T09:27:13.773Z,14.90
2019-03-31T09:29:42.528Z,14.80
2019-03-31T09:32:10.849Z,16.33
2019-03-31T09:34:39.290Z,15.27
2019-03-31T09:37:07.729Z,15.73
2019-03-31T09:39:37.059Z,17.10
2019-03-31T09:42:06.987Z,18.97
2019-03-31T09:44:35.426Z,16.63
2019-03-31T09:47:03.951Z,18.40
2019-03-31T09:49:32.359Z,18.57
2019-03-31T09:52:00.749Z,17.73
2019-03-31T09:54:29.204Z,18.82
2019-03-31T09:56:57.635Z,17.60
2019-03-31T09:59:26.003Z,16.02
2019-03-31T10:01:54.370Z,20.52
2019-03-31T10:04:22.795Z,19.80
2019-03-31T10:06:51.759Z,18.75
2019-03-31T10:09:20.185Z,17.05
2019-03-31T10:11:48.489Z,17.57
2019-03-31T10:14:16.839Z,16.60
2019-03-31T10:16:45.250Z,18.25
2019-03-31T10:19:13.670Z,19.17
2019-03-31T10:21:42.090Z,21.40
2019-03-31T10:24:10.482Z,21.90
2019-03-31T10:26:38.886Z,20.50
2019-03-31T10:29:07.202Z,20.55
2019-03-31T10:31:36.844Z,19.35
2019-03-31T10:34:05.363Z,19.62
2019-03-31T10:36:43.756Z,21.07
2019-03-31T10:39:05.435Z,23.35
2019-03-31T10:41:35.928Z,22.05
2019-03-31T10:44:04.244Z,20.92
2019-03-31T10:46:32.681Z,21.35
2019-03-31T10:49:00.997Z,23.12
2019-03-31T10:51:29.309Z,24.02
2019-03-31T10:53:57.662Z,23.30
2019-03-31T10:56:25.992Z,24.05
2019-03-31T10:58:54.383Z,21.70
2019-03-31T11:01:22.698Z,24.77
2019-03-31T11:03:51.037Z,25.43
2019-03-31T11:06:19.361Z,24.40
2019-03-31T11:08:47.624Z,22.32
2019-03-31T11:11:16.753Z,23.70
2019-03-31T11:13:45.007Z,25.87
2019-03-31T11:16:13.359Z,25.70
2019-03-31T11:18:46.330Z,22.80
2019-03-31T11:21:17.221Z,25.30
2019-03-31T11:23:45.636Z,25.67
2019-03-31T11:26:14.076Z,19.20
2019-03-31T11:28:42.305Z,21.90
2019-03-31T11:31:10.739Z,21.25
2019-03-31T11:33:39.350Z,18.98
2019-03-31T11:36:11.092Z,21.80
2019-03-31T11:41:43.546Z,21.93
2019-03-31T11:44:27.301Z,21.27
2019-03-31T11:46:53.897Z,22.37
2019-03-31T11:49:22.343Z,21.97
2019-03-31T11:51:54.199Z,19.77
2019-03-31T12:06:04.874Z,21.20
2019-03-31T12:08:45.944Z,25.07
2019-03-31T12:11:16.001Z,21.53
2019-03-31T12:13:44.440Z,20.23
2019-03-31T12:16:41.177Z,19.37
2019-03-31T12:19:08.042Z,21.57
2019-03-31T12:24:45.124Z,18.33
2019-03-31T12:27:16.243Z,16.87
2019-03-31T12:29:47.811Z,18.47
2019-03-31T12:32:16.488Z,18.30
2019-03-31T12:34:44.989Z,17.83
2019-03-31T12:37:13.432Z,16.10
2019-03-31T12:39:41.738Z,16.67
2019-03-31T12:42:10.205Z,16.83
2019-03-31T12:44:38.428Z,14.93
2019-03-31T12:47:06.872Z,11.70
2019-03-31T12:49:35.216Z,13.20
2019-03-31T12:52:03.609Z,10.90
2019-03-31T12:54:32.034Z,12.67
2019-03-31T12:57:00.350Z,14.17
2019-03-31T12:59:28.705Z,14.33
2019-03-31T13:01:56.997Z,12.67
2019-03-31T13:04:25.249Z,13.17
2019-03-31T13:06:53.545Z,13.47
2019-03-31T13:09:21.803Z,13.53
2019-03-31T13:11:50.516Z,12.33
2019-03-31T13:14:18.917Z,11.77
2019-03-31T13:16:47.176Z,14.27
2019-03-31T13:19:15.392Z,16.37
2019-03-31T13:21:43.643Z,14.10
2019-03-31T13:24:11.940Z,13.10
2019-03-31T13:26:40.200Z,12.57
2019-03-31T13:29:08.433Z,14.97
2019-03-31T13:31:36.696Z,18.60
2019-03-31T13:34:04.929Z,20.23
2019-03-31T13:36:33.189Z,19.40
2019-03-31T13:39:01.477Z,18.83
2019-03-31T13:41:29.735Z,22.70
2019-03-31T13:43:58.194Z,22.67
2019-03-31T13:46:26.432Z,20.67
2019-03-31T13:48:54.753Z,23.63
2019-03-31T13:51:24.687Z,20.63
2019-03-31T13:53:52.904Z,19.93
2019-03-31T13:56:21.128Z,20.90
2019-03-31T13:58:52.480Z,19.80
2019-03-31T14:01:19.443Z,18.37
2019-03-31T14:03:47.684Z,19.97
2019-03-31T14:06:15.912Z,20.10
2019-03-31T14:08:44.246Z,18.33
2019-03-31T14:11:12.691Z,20.63
2019-03-31T14:13:40.944Z,18.67
2019-03-31T14:16:09.193Z,20.03
2019-03-31T14:18:37.429Z,16.67
2019-03-31T14:21:05.732Z,18.90
2019-03-31T14:23:33.911Z,19.93
2019-03-31T14:26:02.237Z,20.00
2019-03-31T14:28:30.608Z,19.83
2019-03-31T14:30:58.946Z,15.57
2019-03-31T14:33:27.254Z,18.13
2019-03-31T14:35:55.806Z,19.40
2019-03-31T14:38:24.081Z,16.67
2019-03-31T14:40:52.430Z,17.47
2019-03-31T14:43:20.652Z,22.83
2019-03-31T14:45:48.884Z,17.37
2019-03-31T14:48:17.153Z,15.67
2019-03-31T14:50:45.369Z,17.67
2019-03-31T14:53:13.645Z,17.60
2019-03-31T14:55:41.850Z,20.20
2019-03-31T14:58:10.176Z,18.43
2019-03-31T15:00:38.480Z,16.90
2019-03-31T15:03:06.782Z,16.97
2019-03-31T15:05:35.025Z,15.97
2019-03-31T15:08:03.240Z,15.30
2019-03-31T15:10:31.497Z,14.93
2019-03-31T15:12:59.714Z,13.20
2019-03-31T15:15:27.999Z,14.93
2019-03-31T15:17:56.271Z,15.50
2019-03-31T15:20:24.607Z,15.27
2019-03-31T15:22:52.939Z,15.60
2019-03-31T15:25:21.582Z,17.63
2019-03-31T15:27:49.788Z,17.37
2019-03-31T15:30:18.089Z,17.30
2019-03-31T15:32:46.416Z,19.00
2019-03-31T15:35:14.720Z,18.73
2019-03-31T15:37:43.050Z,18.50
2019-03-31T15:40:11.443Z,21.07
2019-03-31T15:42:39.938Z,21.00
2019-03-31T15:45:08.308Z,19.60
2019-03-31T15:47:36.704Z,21.13
2019-03-31T15:50:05.734Z,17.03
2019-03-31T15:52:33.964Z,22.73
2019-03-31T15:55:02.288Z,18.10
2019-03-31T15:57:30.673Z,18.80
2019-03-31T15:59:58.992Z,18.43
2019-03-31T16:02:28.860Z,19.90
2019-03-31T16:04:57.257Z,19.47
2019-03-31T16:07:25.519Z,18.27
2019-03-31T16:09:53.780Z,19.60
2019-03-31T16:12:22.081Z,19.80
2019-03-31T16:14:50.336Z,20.40
2019-03-31T16:17:18.728Z,18.10
2019-03-31T16:19:47.067Z,22.67
2019-03-31T16:22:15.364Z,19.87
2019-03-31T16:24:45.333Z,18.70
2019-03-31T16:27:13.583Z,21.97
2019-03-31T16:29:42.047Z,19.20
2019-03-31T16:32:10.418Z,23.20
2019-03-31T16:34:38.616Z,21.37
2019-03-31T16:37:07.066Z,20.27
2019-03-31T16:39:37.998Z,19.30
2019-03-31T16:42:05.191Z,20.07
2019-03-31T16:44:33.422Z,21.23
2019-03-31T16:47:01.694Z,17.50
2019-03-31T16:49:29.992Z,18.83
2019-03-31T16:51:58.211Z,22.93
2019-03-31T16:54:26.474Z,27.30
2019-03-31T16:56:54.705Z,31.03
2019-03-31T16:59:23.035Z,31.83
2019-03-31T17:01:51.267Z,35.30
2019-03-31T17:04:19.529Z,33.30
2019-03-31T17:06:47.784Z,40.73
2019-03-31T17:09:16.000Z,34.30
2019-03-31T17:11:44.264Z,35.73
2019-03-31T17:14:12.504Z,36.40
2019-03-31T17:16:40.757Z,40.20
2019-03-31T17:19:09.088Z,37.43
2019-03-31T17:21:37.412Z,44.83
2019-03-31T17:24:05.703Z,40.17
2019-03-31T17:26:33.908Z,36.30
2019-03-31T17:29:02.139Z,40.17
2019-03-31T17:31:30.362Z,42.27
2019-03-31T17:33:58.552Z,42.90
2019-03-31T17:36:26.857Z,44.73
2019-03-31T17:38:55.187Z,49.17
2019-03-31T17:41:23.452Z,43.53
2019-03-31T17:43:51.672Z,44.57
2019-03-31T17:46:20.007Z,47.70
2019-03-31T17:48:48.237Z,46.60
2019-03-31T17:51:16.486Z,51.00
2019-03-31T17:53:44.719Z,48.10
2019-03-31T17:56:13.923Z,47.57
2019-03-31T17:58:42.193Z,49.20
2019-03-31T18:01:10.484Z,49.20
2019-03-31T18:03:38.810Z,53.67
2019-03-31T18:06:07.040Z,55.73
2019-03-31T18:08:35.502Z,54.20
2019-03-31T18:11:03.960Z,55.07
2019-03-31T18:13:32.435Z,53.23
2019-03-31T18:16:00.735Z,52.23
2019-03-31T18:18:29.010Z,54.80
2019-03-31T18:20:57.335Z,58.80
2019-03-31T18:23:25.611Z,53.83
2019-03-31T18:25:53.980Z,55.13
2019-03-31T18:28:22.539Z,57.10
2019-03-31T18:30:50.842Z,58.83
2019-03-31T18:33:19.099Z,58.27
2019-03-31T18:35:47.323Z,60.93
2019-03-31T18:38:15.626Z,57.53
2019-03-31T18:40:44.037Z,56.97
2019-03-31T18:43:12.335Z,56.87
2019-03-31T18:45:40.589Z,57.87
2019-03-31T18:48:08.893Z,56.97
2019-03-31T18:50:37.157Z,55.33
2019-03-31T18:53:06.556Z,57.93
2019-03-31T18:55:39.277Z,62.10
2019-03-31T18:58:28.025Z,56.60
2019-03-31T19:01:00.306Z,55.07
2019-03-31T19:03:30.583Z,60.77
2019-03-31T19:06:03.702Z,56.50
2019-03-31T19:08:50.224Z,56.13
2019-03-31T19:11:26.013Z,54.50
2019-03-31T19:14:12.498Z,53.67
2019-03-31T19:19:43.471Z,57.73
2019-03-31T19:22:31.448Z,54.83
2019-03-31T19:25:01.367Z,58.87
2019-03-31T19:27:47.513Z,55.57
2019-03-31T19:30:34.073Z,55.00
2019-03-31T19:36:09.245Z,54.53
2019-03-31T19:38:54.149Z,62.07
2019-03-31T19:41:26.514Z,59.67
2019-03-31T19:43:59.146Z,59.40
2019-03-31T19:46:44.628Z,59.60
2019-03-31T19:49:14.655Z,63.13
2019-03-31T19:51:59.846Z,65.50
2019-03-31T19:54:32.805Z,60.30
2019-03-31T19:57:11.955Z,58.53
2019-03-31T19:59:57.171Z,55.10
2019-03-31T20:02:29.760Z,62.37
2019-03-31T20:05:08.576Z,61.83
2019-03-31T20:07:54.933Z,60.80
2019-03-31T20:10:27.540Z,62.90
2019-03-31T20:13:15.717Z,60.77
2019-03-31T20:15:58.005Z,61.93
2019-03-31T20:18:45.131Z,63.70
2019-03-31T20:21:32.022Z,64.70
2019-03-31T20:23:54.649Z,60.43
2019-03-31T20:26:31.235Z,64.93
2019-03-31T20:29:07.122Z,66.57
2019-03-31T20:31:55.368Z,64.23
2019-03-31T20:34:29.458Z,68.40
2019-03-31T20:37:02.137Z,67.37
2019-03-31T20:39:35.225Z,70.70
2019-03-31T20:42:11.145Z,70.90
2019-03-31T20:44:39.562Z,69.20
2019-03-31T20:47:07.933Z,67.13
2019-03-31T20:49:36.221Z,66.67
2019-03-31T20:52:04.622Z,71.60
2019-03-31T20:54:33.270Z,65.90
2019-03-31T20:57:02.079Z,70.23
2019-03-31T20:59:30.419Z,68.07
2019-03-31T21:01:58.740Z,73.73
2019-03-31T21:04:27.853Z,67.10
2019-03-31T21:06:57.932Z,68.87
2019-03-31T21:09:27.644Z,72.03
2019-03-31T21:11:56.339Z,70.30
2019-03-31T21:14:27.829Z,72.33
2019-03-31T21:16:59.639Z,74.33
2019-03-31T21:19:28.046Z,69.03
2019-03-31T21:21:56.398Z,70.03
2019-03-31T21:24:24.878Z,67.97
2019-03-31T21:26:53.177Z,74.43
2019-03-31T21:29:21.747Z,74.63
2019-03-31T21:31:51.096Z,72.70
2019-03-31T21:34:19.529Z,73.63
2019-03-31T21:36:48.050Z,70.00
2019-03-31T21:39:16.688Z,72.13
2019-03-31T21:41:44.914Z,72.30
2019-03-31T21:44:14.110Z,75.13
2019-03-31T21:46:42.395Z,75.40
2019-03-31T21:49:11.249Z,71.10
2019-03-31T21:51:39.575Z,70.70
2019-03-31T21:54:07.917Z,70.87
2019-03-31T21:56:36.943Z,71.00
2019-03-31T21:59:05.920Z,70.50
2019-03-31T22:01:34.244Z,70.33
2019-03-31T22:04:02.668Z,63.20
2019-03-31T22:06:30.899Z,72.90
2019-03-31T22:08:59.648Z,69.83
2019-03-31T22:11:28.286Z,70.03
2019-03-31T22:13:56.731Z,68.80
2019-03-31T22:16:24.959Z,68.13
2019-03-31T22:18:53.532Z,68.50
2019-03-31T22:21:21.792Z,63.33
2019-03-31T22:23:57.675Z,69.30
2019-03-31T22:26:20.600Z,68.03
2019-03-31T22:28:49.025Z,67.50
2019-03-31T22:31:17.326Z,69.43
2019-03-31T22:33:45.627Z,68.97
2019-03-31T22:36:23.496Z,70.77
2019-03-31T22:38:52.397Z,68.87
2019-03-31T22:41:20.699Z,70.77
2019-03-31T22:43:49.231Z,73.67
2019-03-31T22:46:17.929Z,76.17
2019-03-31T22:48:46.151Z,69.13
2019-03-31T22:51:15.518Z,69.43
2019-03-31T22:53:43.820Z,68.37
2019-03-31T22:56:12.074Z,68.90
2019-03-31T22:58:40.316Z,68.50
2019-03-31T23:01:08.653Z,67.33
2019-03-31T23:03:36.872Z,69.50
2019-03-31T23:06:05.100Z,72.40
2019-03-31T23:08:33.360Z,66.03
2019-03-31T23:11:01.586Z,72.27
2019-03-31T23:13:29.841Z,70.27
2019-03-31T23:15:58.140Z,76.17
2019-03-31T23:18:26.400Z,66.03
2019-03-31T23:20:54.721Z,64.87
2019-03-31T23:23:22.981Z,68.00
2019-03-31T23:25:51.215Z,69.23
2019-03-31T23:28:19.476Z,68.90
2019-03-31T23:30:47.705Z,68.93
2019-03-31T23:33:16.041Z,69.27
2019-03-31T23:35:44.337Z,64.30
2019-03-31T23:38:12.601Z,76.97
2019-03-31T23:40:40.838Z,72.33
2019-03-31T23:43:09.084Z,70.10
2019-03-31T23:45:37.327Z,66.30
2019-03-31T23:48:05.673Z,68.20
2019-03-31T23:50:33.876Z,72.47
2019-03-31T23:53:02.100Z,68.67
2019-03-31T23:55:30.365Z,74.83
2019-03-31T23:57:58.670Z,66.37
